createdAt,value
2018-11-06T00:01:32.471Z,11.67
2018-11-06T00:04:01.690Z,11.87
2018-11-06T00:06:28.917Z,12.63
2018-11-06T00:08:56.291Z,13.00
2018-11-06T00:11:23.687Z,12.37
2018-11-06T00:13:51.093Z,10.67
2018-11-06T00:16:19.148Z,11.00
2018-11-06T00:18:46.627Z,10.80
2018-11-06T00:21:14.322Z,11.90
2018-11-06T00:23:41.616Z,8.93
2018-11-06T00:26:08.807Z,12.60
2018-11-06T00:28:36.371Z,10.77
2018-11-06T00:31:03.723Z,11.70
2018-11-06T00:33:31.259Z,12.30
2018-11-06T00:35:58.480Z,13.57
2018-11-06T00:38:25.838Z,11.60
2018-11-06T00:40:53.070Z,9.53
2018-11-06T00:43:20.357Z,9.90
2018-11-06T00:45:47.635Z,11.30
2018-11-06T00:48:14.985Z,13.07
2018-11-06T00:50:42.221Z,11.73
2018-11-06T00:53:09.598Z,9.37
2018-11-06T00:55:37.998Z,9.00
2018-11-06T00:58:05.532Z,9.83
2018-11-06T01:00:33.717Z,8.23
2018-11-06T01:03:01.760Z,9.20
2018-11-06T01:05:29.055Z,9.83
2018-11-06T01:07:56.417Z,11.20
2018-11-06T01:10:23.762Z,11.90
2018-11-06T01:12:50.976Z,9.93
2018-11-06T01:15:18.265Z,10.63
2018-11-06T01:17:46.742Z,12.03
2018-11-06T01:20:15.623Z,14.10
2018-11-06T01:22:42.854Z,10.20
2018-11-06T01:25:12.241Z,8.63
2018-11-06T01:27:39.706Z,12.30
2018-11-06T01:30:10.257Z,9.63
2018-11-06T01:32:37.412Z,9.33
2018-11-06T01:35:05.971Z,9.27
2018-11-06T01:40:11.481Z,9.00
2018-11-06T01:42:46.060Z,9.90
2018-11-06T01:45:14.557Z,11.93
2018-11-06T01:47:41.919Z,10.40
2018-11-06T01:50:11.360Z,13.17
2018-11-06T01:52:39.296Z,8.90
2018-11-06T01:55:07.270Z,12.90
2018-11-06T01:57:34.686Z,8.90
2018-11-06T02:00:02.099Z,12.20
2018-11-06T02:02:29.758Z,9.00
2018-11-06T02:04:56.954Z,10.93
2018-11-06T02:07:24.146Z,8.50
2018-11-06T02:09:51.454Z,8.53
2018-11-06T02:12:18.741Z,9.83
2018-11-06T02:14:45.943Z,10.63
2018-11-06T02:17:13.122Z,10.50
2018-11-06T02:19:40.661Z,10.87
2018-11-06T02:22:07.962Z,11.63
2018-11-06T02:24:35.229Z,8.93
2018-11-06T02:27:02.465Z,10.13
2018-11-06T02:29:29.926Z,8.97
2018-11-06T02:31:57.077Z,9.33
2018-11-06T02:34:24.338Z,14.73
2018-11-06T02:36:51.564Z,10.00
2018-11-06T02:39:18.827Z,11.10
2018-11-06T02:41:45.983Z,10.00
2018-11-06T02:44:13.627Z,9.27
2018-11-06T02:46:40.805Z,10.17
2018-11-06T02:49:08.049Z,11.33
2018-11-06T02:51:35.287Z,8.37
2018-11-06T02:54:05.404Z,12.57
2018-11-06T02:56:33.494Z,10.70
2018-11-06T02:59:02.977Z,12.07
2018-11-06T03:01:30.362Z,8.70
2018-11-06T03:03:58.134Z,9.07
2018-11-06T03:06:25.635Z,8.50
2018-11-06T03:08:52.910Z,11.83
2018-11-06T03:11:20.184Z,15.70
2018-11-06T03:13:47.738Z,10.20
2018-11-06T03:16:15.101Z,10.07
2018-11-06T03:18:43.114Z,8.30
2018-11-06T03:21:10.404Z,8.97
2018-11-06T03:23:37.754Z,7.53
2018-11-06T03:26:05.002Z,8.87
2018-11-06T03:28:32.318Z,8.33
2018-11-06T03:30:59.635Z,9.30
2018-11-06T03:33:28.189Z,9.10
2018-11-06T03:35:55.990Z,8.53
2018-11-06T03:38:23.313Z,7.70
2018-11-06T03:40:50.465Z,10.73
2018-11-06T03:43:18.155Z,8.90
2018-11-06T03:45:45.583Z,11.53
2018-11-06T03:48:12.845Z,11.30
2018-11-06T03:50:40.087Z,11.70
2018-11-06T03:53:07.274Z,8.10
2018-11-06T03:55:34.598Z,8.53
2018-11-06T03:58:01.879Z,9.83
2018-11-06T04:00:29.096Z,10.27
2018-11-06T04:02:56.670Z,11.30
2018-11-06T04:05:23.981Z,11.43
2018-11-06T04:07:51.554Z,8.87
2018-11-06T04:10:18.721Z,10.93
2018-11-06T04:12:46.316Z,12.30
2018-11-06T04:15:14.100Z,11.43
2018-11-06T04:17:42.224Z,9.60
2018-11-06T04:20:09.896Z,13.17
2018-11-06T04:22:37.353Z,12.63
2018-11-06T04:25:05.308Z,15.63
2018-11-06T04:27:33.481Z,11.73
2018-11-06T04:30:00.881Z,10.93
2018-11-06T04:32:28.102Z,13.17
2018-11-06T04:34:55.520Z,10.60
2018-11-06T04:37:22.713Z,11.13
2018-11-06T04:39:49.883Z,11.43
2018-11-06T04:42:17.302Z,12.57
2018-11-06T04:44:44.781Z,10.70
2018-11-06T04:47:13.788Z,11.30
2018-11-06T04:49:42.174Z,14.00
2018-11-06T04:52:09.750Z,13.60
2018-11-06T04:54:37.244Z,12.97
2018-11-06T04:57:04.723Z,12.60
2018-11-06T04:59:31.994Z,14.70
2018-11-06T05:02:00.142Z,14.57
2018-11-06T05:04:27.360Z,15.07
2018-11-06T05:06:54.781Z,19.63
2018-11-06T05:09:22.034Z,14.60
2018-11-06T05:11:49.424Z,17.53
2018-11-06T05:14:17.064Z,15.13
2018-11-06T05:16:44.539Z,11.97
2018-11-06T05:19:13.058Z,13.87
2018-11-06T05:21:41.217Z,9.47
2018-11-06T05:24:08.504Z,11.20
2018-11-06T05:26:37.290Z,10.10
2018-11-06T05:29:04.662Z,13.43
2018-11-06T05:31:32.053Z,11.33
2018-11-06T05:33:59.303Z,8.30
2018-11-06T05:36:29.010Z,12.90
2018-11-06T05:38:56.519Z,13.37
2018-11-06T05:41:23.965Z,25.27
2018-11-06T05:43:51.320Z,33.40
2018-11-06T05:46:18.965Z,11.83
2018-11-06T05:48:47.082Z,11.13
2018-11-06T05:51:14.857Z,12.07
2018-11-06T05:53:42.270Z,11.07
2018-11-06T05:56:10.433Z,18.13
2018-11-06T05:58:37.797Z,13.23
2018-11-06T06:01:05.215Z,15.57
2018-11-06T06:03:32.386Z,12.50
2018-11-06T06:05:59.661Z,15.20
2018-11-06T06:08:27.127Z,17.80
2018-11-06T06:10:54.696Z,17.70
2018-11-06T06:13:22.225Z,15.43
2018-11-06T06:15:49.688Z,13.97
2018-11-06T06:18:16.963Z,15.87
2018-11-06T06:20:44.301Z,19.83
2018-11-06T06:23:11.740Z,17.60
2018-11-06T06:25:39.106Z,21.00
2018-11-06T06:28:09.318Z,16.10
2018-11-06T06:30:37.796Z,16.00
2018-11-06T06:33:05.228Z,21.47
2018-11-06T06:35:32.686Z,18.80
2018-11-06T06:38:00.198Z,21.80
2018-11-06T06:40:27.758Z,24.60
2018-11-06T06:42:55.156Z,32.40
2018-11-06T06:45:22.499Z,28.60
2018-11-06T06:47:49.767Z,21.77
2018-11-06T06:50:18.443Z,27.27
2018-11-06T06:52:46.540Z,27.67
2018-11-06T06:55:14.598Z,30.60
2018-11-06T06:57:42.841Z,26.03
2018-11-06T07:00:12.194Z,26.30
2018-11-06T07:02:39.736Z,37.50
2018-11-06T07:05:08.521Z,29.80
2018-11-06T07:07:36.692Z,31.90
2018-11-06T07:10:05.229Z,30.33
2018-11-06T07:12:32.558Z,31.63
2018-11-06T07:14:59.816Z,27.30
2018-11-06T07:17:27.110Z,27.40
2018-11-06T07:19:55.083Z,41.93
2018-11-06T07:22:22.435Z,34.83
2018-11-06T07:24:49.741Z,30.43
2018-11-06T07:27:17.033Z,31.17
2018-11-06T07:29:44.431Z,32.40
2018-11-06T07:32:11.650Z,35.73
2018-11-06T07:34:39.730Z,31.53
2018-11-06T07:37:07.019Z,47.70
2018-11-06T07:39:34.473Z,35.30
2018-11-06T07:42:01.759Z,32.60
2018-11-06T07:44:29.075Z,34.73
2018-11-06T07:46:56.432Z,44.90
2018-11-06T07:49:23.797Z,47.43
2018-11-06T07:51:51.558Z,40.50
2018-11-06T07:54:19.234Z,43.93
2018-11-06T07:56:46.771Z,40.27
2018-11-06T07:59:14.437Z,45.20
2018-11-06T08:01:41.598Z,48.63
2018-11-06T08:04:09.196Z,41.80
2018-11-06T08:06:36.383Z,44.13
2018-11-06T08:09:07.026Z,50.70
2018-11-06T08:11:34.442Z,46.57
2018-11-06T08:14:02.060Z,45.80
2018-11-06T08:16:29.310Z,52.67
2018-11-06T08:18:56.922Z,44.53
2018-11-06T08:21:24.365Z,43.00
2018-11-06T08:23:51.899Z,37.80
2018-11-06T08:26:19.156Z,46.90
2018-11-06T08:28:46.541Z,39.83
2018-11-06T08:31:14.109Z,58.80
2018-11-06T08:33:41.703Z,39.30
2018-11-06T08:36:09.272Z,37.00
2018-11-06T08:38:36.720Z,46.70
2018-11-06T08:41:04.238Z,49.27
2018-11-06T08:43:32.146Z,34.20
2018-11-06T08:45:59.397Z,38.77
2018-11-06T08:48:26.767Z,32.37
2018-11-06T08:50:54.422Z,28.60
2018-11-06T08:53:21.750Z,35.27
2018-11-06T08:55:49.123Z,30.03
2018-11-06T08:58:16.527Z,30.87
2018-11-06T09:00:43.919Z,26.43
2018-11-06T09:03:11.094Z,25.23
2018-11-06T09:05:38.619Z,23.30
2018-11-06T09:08:06.918Z,27.40
2018-11-06T09:10:34.403Z,26.10
2018-11-06T09:13:01.747Z,23.13
2018-11-06T09:15:28.988Z,23.20
2018-11-06T09:17:56.235Z,25.57
2018-11-06T09:20:23.506Z,22.63
2018-11-06T09:22:50.756Z,25.90
2018-11-06T09:25:18.712Z,27.93
2018-11-06T09:27:46.158Z,21.70
2018-11-06T09:30:14.704Z,22.87
2018-11-06T09:32:42.029Z,25.10
2018-11-06T09:35:10.324Z,24.00
2018-11-06T09:37:37.636Z,23.37
2018-11-06T09:40:06.013Z,25.13
2018-11-06T09:42:33.224Z,28.10
2018-11-06T09:45:00.564Z,23.07
2018-11-06T09:47:27.760Z,22.70
2018-11-06T09:49:55.121Z,26.53
2018-11-06T09:52:22.483Z,31.00
2018-11-06T09:54:51.271Z,21.80
2018-11-06T09:57:18.528Z,23.27
2018-11-06T09:59:46.083Z,25.27
2018-11-06T10:02:13.366Z,22.60
2018-11-06T10:04:40.777Z,24.83
2018-11-06T10:07:08.697Z,23.90
2018-11-06T10:09:35.798Z,21.03
2018-11-06T10:12:03.107Z,24.10
2018-11-06T10:14:30.830Z,25.73
2018-11-06T10:16:58.476Z,24.03
2018-11-06T10:19:26.062Z,22.63
2018-11-06T10:21:53.291Z,25.50
2018-11-06T10:24:20.557Z,25.07
2018-11-06T10:26:47.913Z,23.93
2018-11-06T10:29:15.337Z,25.90
2018-11-06T10:31:42.714Z,22.63
2018-11-06T10:34:10.833Z,22.50
2018-11-06T10:36:38.047Z,25.93
2018-11-06T10:39:08.017Z,23.67
2018-11-06T10:41:35.945Z,22.17
2018-11-06T10:44:03.277Z,20.43
2018-11-06T10:46:30.497Z,23.83
2018-11-06T10:48:57.804Z,18.67
2018-11-06T10:51:25.240Z,23.03
2018-11-06T10:53:52.441Z,18.80
2018-11-06T10:56:19.834Z,20.37
2018-11-06T10:58:47.153Z,22.53
2018-11-06T11:01:20.172Z,20.30
2018-11-06T11:03:53.074Z,19.00
2018-11-06T11:06:20.445Z,18.27
2018-11-06T11:08:48.071Z,29.33
2018-11-06T11:11:15.461Z,24.60
2018-11-06T11:13:42.721Z,21.50
2018-11-06T11:16:10.396Z,20.43
2018-11-06T11:18:37.855Z,18.17
2018-11-06T11:21:05.491Z,17.43
2018-11-06T11:23:33.236Z,20.10
2018-11-06T11:26:00.566Z,23.33
2018-11-06T11:28:27.850Z,20.30
2018-11-06T11:30:55.411Z,16.57
2018-11-06T11:33:22.755Z,16.33
2018-11-06T11:35:50.215Z,16.90
2018-11-06T11:38:17.495Z,27.50
2018-11-06T11:40:45.030Z,21.00
2018-11-06T11:43:12.840Z,21.80
2018-11-06T11:45:40.104Z,21.20
2018-11-06T11:48:07.268Z,19.07
2018-11-06T11:50:34.816Z,16.33
2018-11-06T11:53:02.194Z,18.90
2018-11-06T11:55:29.413Z,17.17
2018-11-06T11:57:57.338Z,16.80
2018-11-06T12:00:28.577Z,20.93
2018-11-06T12:02:56.593Z,20.27
2018-11-06T12:05:23.790Z,14.53
2018-11-06T12:07:51.115Z,18.37
2018-11-06T12:10:18.306Z,15.17
2018-11-06T12:12:45.774Z,16.10
2018-11-06T12:15:14.608Z,14.87
2018-11-06T12:17:43.240Z,16.13
2018-11-06T12:20:11.295Z,13.43
2018-11-06T12:22:39.222Z,14.70
2018-11-06T12:25:06.742Z,13.87
2018-11-06T12:27:33.987Z,14.10
2018-11-06T12:30:01.274Z,13.80
2018-11-06T12:32:29.045Z,15.80
2018-11-06T12:34:56.353Z,17.53
2018-11-06T12:37:23.620Z,12.80
2018-11-06T12:39:57.538Z,15.07
2018-11-06T12:42:24.819Z,15.67
2018-11-06T12:44:52.316Z,21.63
2018-11-06T12:47:19.778Z,12.30
2018-11-06T12:49:47.086Z,11.53
2018-11-06T12:52:14.354Z,14.27
2018-11-06T12:54:41.567Z,17.77
2018-11-06T12:57:08.895Z,16.67
2018-11-06T12:59:36.354Z,13.93
2018-11-06T13:02:03.921Z,14.67
2018-11-06T13:04:31.366Z,13.53
2018-11-06T13:06:58.781Z,17.63
2018-11-06T13:09:28.340Z,21.30
2018-11-06T13:11:55.733Z,20.03
2018-11-06T13:14:23.025Z,14.47
2018-11-06T13:16:50.261Z,16.57
2018-11-06T13:19:17.539Z,18.10
2018-11-06T13:21:44.796Z,16.40
2018-11-06T13:24:12.274Z,21.07
2018-11-06T13:26:39.759Z,17.63
2018-11-06T13:29:07.742Z,17.70
2018-11-06T13:31:35.248Z,17.67
2018-11-06T13:34:02.814Z,18.17
2018-11-06T13:36:30.550Z,19.27
2018-11-06T13:38:57.911Z,19.13
2018-11-06T13:41:25.227Z,20.63
2018-11-06T13:43:53.038Z,16.90
2018-11-06T13:46:20.179Z,19.23
2018-11-06T13:48:48.585Z,18.73
2018-11-06T13:51:16.424Z,15.30
2018-11-06T13:53:44.074Z,15.53
2018-11-06T13:56:11.352Z,14.50
2018-11-06T13:58:38.584Z,15.70
2018-11-06T14:01:06.487Z,17.30
2018-11-06T14:03:33.719Z,18.13
2018-11-06T14:06:00.973Z,18.33
2018-11-06T14:08:28.273Z,13.33
2018-11-06T14:10:55.571Z,15.50
2018-11-06T14:13:23.026Z,22.70
2018-11-06T14:15:50.290Z,15.57
2018-11-06T14:18:17.838Z,15.03
2018-11-06T14:20:45.221Z,23.73
2018-11-06T14:23:12.549Z,22.97
2018-11-06T14:25:39.814Z,18.83
2018-11-06T14:28:07.242Z,16.23
2018-11-06T14:30:34.467Z,14.47
2018-11-06T14:33:01.869Z,16.10
2018-11-06T14:35:29.162Z,19.57
2018-11-06T14:37:57.192Z,14.97
2018-11-06T14:40:24.541Z,27.70
2018-11-06T14:42:53.116Z,29.10
2018-11-06T14:45:20.472Z,17.73
2018-11-06T14:47:47.845Z,16.93
2018-11-06T14:50:15.293Z,18.27
2018-11-06T14:52:42.730Z,26.77
2018-11-06T14:55:11.345Z,25.10
2018-11-06T14:57:39.253Z,23.43
2018-11-06T15:00:13.382Z,19.77
2018-11-06T15:02:41.462Z,16.70
2018-11-06T15:05:08.742Z,19.00
2018-11-06T15:07:35.993Z,16.47
2018-11-06T15:10:03.771Z,15.53
2018-11-06T15:12:31.262Z,16.43
2018-11-06T15:14:58.974Z,15.57
2018-11-06T15:17:26.436Z,17.43
2018-11-06T15:19:53.744Z,21.07
2018-11-06T15:22:21.031Z,18.87
2018-11-06T15:24:48.814Z,22.10
2018-11-06T15:27:16.351Z,16.87
2018-11-06T15:29:43.588Z,17.13
2018-11-06T15:32:10.961Z,20.90
2018-11-06T15:34:41.475Z,17.37
2018-11-06T15:37:09.824Z,20.67
2018-11-06T15:39:37.102Z,15.80
2018-11-06T15:42:04.752Z,24.33
2018-11-06T15:44:36.364Z,20.57
2018-11-06T15:47:04.205Z,18.63
2018-11-06T15:49:31.732Z,23.50
2018-11-06T15:51:59.077Z,20.90
2018-11-06T15:54:26.481Z,19.10
2018-11-06T15:56:54.037Z,21.40
2018-11-06T15:59:21.495Z,26.20
2018-11-06T16:01:49.385Z,21.10
2018-11-06T16:04:17.159Z,21.03
2018-11-06T16:06:44.999Z,20.63
2018-11-06T16:09:13.296Z,20.50
2018-11-06T16:11:40.522Z,26.07
2018-11-06T16:14:08.109Z,25.03
2018-11-06T16:16:35.462Z,20.83
2018-11-06T16:19:03.397Z,18.37
2018-11-06T16:21:30.962Z,17.67
2018-11-06T16:23:58.450Z,19.30
2018-11-06T16:26:25.793Z,16.00
2018-11-06T16:28:53.556Z,21.60
2018-11-06T16:31:21.060Z,26.63
2018-11-06T16:33:48.466Z,13.07
2018-11-06T16:36:16.114Z,14.30
2018-11-06T16:38:43.533Z,13.53
2018-11-06T16:41:10.936Z,19.60
2018-11-06T16:43:38.131Z,13.90
2018-11-06T16:46:05.408Z,17.40
2018-11-06T16:48:32.760Z,17.13
2018-11-06T16:50:59.903Z,13.37
2018-11-06T16:53:27.080Z,19.13
2018-11-06T16:55:54.351Z,12.70
2018-11-06T16:58:21.693Z,17.40
2018-11-06T17:00:49.325Z,15.40
2018-11-06T17:03:16.814Z,16.43
2018-11-06T17:05:45.359Z,16.97
2018-11-06T17:08:12.771Z,21.07
2018-11-06T17:10:40.479Z,27.03
2018-11-06T17:13:08.081Z,22.73
2018-11-06T17:15:35.278Z,18.43
2018-11-06T17:18:02.490Z,17.23
2018-11-06T17:20:29.827Z,14.80
2018-11-06T17:22:56.951Z,15.50
2018-11-06T17:25:24.281Z,23.30
2018-11-06T17:27:51.651Z,17.60
2018-11-06T17:30:19.242Z,19.70
2018-11-06T17:32:46.610Z,16.50
2018-11-06T17:35:15.101Z,16.43
2018-11-06T17:37:42.599Z,16.53
2018-11-06T17:40:14.819Z,18.23
2018-11-06T17:42:42.513Z,16.00
2018-11-06T17:45:12.222Z,14.60
2018-11-06T17:47:39.762Z,17.17
2018-11-06T17:50:08.191Z,17.80
2018-11-06T17:52:35.473Z,16.43
2018-11-06T17:55:03.319Z,16.80
2018-11-06T17:57:30.457Z,18.90
2018-11-06T17:59:57.750Z,18.13
2018-11-06T18:02:25.365Z,16.20
2018-11-06T18:04:52.579Z,16.97
2018-11-06T18:07:20.447Z,19.33
2018-11-06T18:09:47.905Z,18.30
2018-11-06T18:12:15.198Z,20.50
2018-11-06T18:14:42.468Z,17.07
2018-11-06T18:17:10.063Z,17.57
2018-11-06T18:19:37.405Z,23.17
2018-11-06T18:22:05.170Z,20.90
2018-11-06T18:24:32.436Z,24.63
2018-11-06T18:26:59.885Z,21.63
2018-11-06T18:29:27.134Z,20.77
2018-11-06T18:31:54.312Z,23.77
2018-11-06T18:34:21.479Z,17.90
2018-11-06T18:36:48.700Z,19.17
2018-11-06T18:39:15.941Z,21.80
2018-11-06T18:41:43.405Z,20.80
2018-11-06T18:44:11.001Z,22.17
2018-11-06T18:46:38.356Z,21.03
2018-11-06T18:49:06.263Z,18.27
2018-11-06T18:51:33.494Z,19.97
2018-11-06T18:54:01.000Z,19.60
2018-11-06T18:56:28.303Z,20.30
2018-11-06T18:58:55.612Z,19.83
2018-11-06T19:01:22.886Z,19.73
2018-11-06T19:03:50.418Z,20.90
2018-11-06T19:06:17.848Z,22.30
2018-11-06T19:08:47.103Z,21.63
2018-11-06T19:11:14.289Z,22.57
2018-11-06T19:13:41.747Z,24.23
2018-11-06T19:16:08.983Z,19.80
2018-11-06T19:18:36.156Z,21.90
2018-11-06T19:21:03.329Z,21.83
2018-11-06T19:23:30.499Z,21.90
2018-11-06T19:25:57.815Z,20.20
2018-11-06T19:28:25.058Z,19.07
2018-11-06T19:30:52.261Z,19.47
2018-11-06T19:33:19.475Z,27.20
2018-11-06T19:35:47.064Z,18.93
2018-11-06T19:38:14.446Z,17.43
2018-11-06T19:40:41.876Z,21.93
2018-11-06T19:43:08.990Z,18.93
2018-11-06T19:45:36.663Z,20.87
2018-11-06T19:48:04.209Z,18.07
2018-11-06T19:50:31.549Z,19.40
2018-11-06T19:52:58.875Z,20.13
2018-11-06T19:55:26.206Z,19.70
2018-11-06T19:57:53.431Z,16.63
2018-11-06T20:00:22.910Z,20.40
2018-11-06T20:02:51.500Z,15.30
2018-11-06T20:05:19.224Z,15.50
2018-11-06T20:07:47.275Z,16.97
2018-11-06T20:10:16.879Z,14.97
2018-11-06T20:12:45.686Z,12.90
2018-11-06T20:15:14.673Z,12.23
2018-11-06T20:17:42.413Z,14.50
2018-11-06T20:20:14.478Z,11.67
2018-11-06T20:22:41.861Z,12.77
2018-11-06T20:25:10.036Z,11.57
2018-11-06T20:27:37.298Z,11.50
2018-11-06T20:30:05.879Z,13.13
2018-11-06T20:32:33.174Z,10.10
2018-11-06T20:35:00.647Z,9.93
2018-11-06T20:37:27.915Z,13.10
2018-11-06T20:39:55.354Z,10.63
2018-11-06T20:42:22.596Z,12.03
2018-11-06T20:44:49.860Z,14.13
2018-11-06T20:47:17.235Z,13.67
2018-11-06T20:49:44.660Z,14.33
2018-11-06T20:52:11.942Z,13.07
2018-11-06T20:54:40.677Z,16.90
2018-11-06T20:57:08.793Z,16.93
2018-11-06T20:59:36.448Z,17.47
2018-11-06T21:02:04.132Z,18.13
2018-11-06T21:04:31.443Z,19.57
2018-11-06T21:06:58.909Z,21.03
2018-11-06T21:09:26.171Z,19.13
2018-11-06T21:11:53.446Z,21.80
2018-11-06T21:14:20.791Z,22.50
2018-11-06T21:16:47.999Z,21.83
2018-11-06T21:19:15.910Z,26.00
2018-11-06T21:21:43.337Z,22.80
2018-11-06T21:24:10.955Z,20.70
2018-11-06T21:26:38.528Z,20.00
2018-11-06T21:29:05.848Z,24.00
2018-11-06T21:31:33.227Z,22.43
2018-11-06T21:34:00.512Z,24.27
2018-11-06T21:36:27.891Z,24.57
2018-11-06T21:38:55.232Z,21.90
2018-11-06T21:41:22.458Z,21.50
2018-11-06T21:43:50.181Z,18.60
2018-11-06T21:46:17.398Z,17.20
2018-11-06T21:48:44.629Z,18.70
2018-11-06T21:51:12.031Z,30.57
2018-11-06T21:53:39.376Z,20.23
2018-11-06T21:56:06.766Z,18.77
2018-11-06T21:58:34.333Z,19.10
2018-11-06T22:01:01.548Z,18.00
2018-11-06T22:03:29.052Z,17.73
2018-11-06T22:05:56.663Z,17.23
2018-11-06T22:08:24.353Z,14.30
2018-11-06T22:10:51.737Z,15.17
2018-11-06T22:13:19.399Z,13.10
2018-11-06T22:15:46.809Z,16.30
2018-11-06T22:18:15.086Z,11.60
2018-11-06T22:20:42.440Z,14.53
2018-11-06T22:23:10.101Z,14.20
2018-11-06T22:25:37.306Z,18.17
2018-11-06T22:28:05.890Z,13.27
2018-11-06T22:30:34.838Z,14.07
2018-11-06T22:33:02.971Z,12.77
2018-11-06T22:35:30.357Z,13.80
2018-11-06T22:37:57.865Z,13.93
2018-11-06T22:40:25.075Z,13.33
2018-11-06T22:42:52.370Z,13.27
2018-11-06T22:45:19.675Z,13.67
2018-11-06T22:47:47.244Z,14.67
2018-11-06T22:50:16.191Z,11.53
2018-11-06T22:52:44.531Z,13.07
2018-11-06T22:55:12.102Z,12.83
2018-11-06T22:57:39.501Z,13.80
2018-11-06T23:00:14.412Z,9.77
2018-11-06T23:02:42.135Z,13.60
2018-11-06T23:05:09.596Z,10.37
2018-11-06T23:07:42.541Z,11.77
2018-11-06T23:10:10.395Z,11.43
2018-11-06T23:12:37.694Z,11.80
2018-11-06T23:15:05.412Z,12.03
2018-11-06T23:17:32.800Z,11.70
2018-11-06T23:20:00.071Z,12.37
2018-11-06T23:22:27.505Z,12.47
2018-11-06T23:24:54.780Z,13.20
2018-11-06T23:27:22.012Z,15.27
2018-11-06T23:29:49.944Z,10.37
2018-11-06T23:32:17.196Z,10.97
2018-11-06T23:34:44.707Z,9.90
2018-11-06T23:37:11.914Z,10.70
2018-11-06T23:39:39.190Z,9.43
2018-11-06T23:42:06.529Z,10.70
2018-11-06T23:44:33.816Z,9.90
2018-11-06T23:47:01.077Z,9.37
2018-11-06T23:49:28.616Z,10.73
2018-11-06T23:51:55.979Z,10.13
2018-11-06T23:54:23.221Z,9.20
2018-11-06T23:56:51.895Z,8.63
2018-11-06T23:59:19.203Z,7.87
